createdAt,value
2023-04-01T00:00:36.023Z,3.47
2023-04-01T00:03:08.098Z,5.50
2023-04-01T00:05:40.085Z,5.90
2023-04-01T00:08:13.411Z,4.00
2023-04-01T00:10:45.459Z,5.43
2023-04-01T00:13:18.248Z,5.17
2023-04-01T00:15:52.454Z,7.33
2023-04-01T00:18:25.104Z,4.57
2023-04-01T00:20:57.995Z,4.90
2023-04-01T00:23:31.027Z,8.17
2023-04-01T00:26:06.541Z,7.37
2023-04-01T00:28:39.863Z,7.20
2023-04-01T00:31:12.899Z,4.87
2023-04-01T00:33:44.563Z,4.17
2023-04-01T00:36:19.503Z,10.47
2023-04-01T00:38:53.614Z,5.67
2023-04-01T00:41:27.057Z,6.93
2023-04-01T00:44:20.102Z,3.23
2023-04-01T00:46:53.545Z,4.17
2023-04-01T00:49:29.028Z,7.27
2023-04-01T00:52:06.199Z,5.83
2023-04-01T00:54:43.995Z,3.23
2023-04-01T00:57:22.140Z,6.27
2023-04-01T00:59:57.458Z,6.47
2023-04-01T01:02:29.761Z,4.33
2023-04-01T01:05:01.405Z,6.13
2023-04-01T01:07:46.792Z,5.80
2023-04-01T01:10:26.073Z,3.53
2023-04-01T01:13:10.697Z,3.70
2023-04-01T01:15:48.594Z,4.80
2023-04-01T01:18:35.701Z,4.77
2023-04-01T01:21:48.281Z,3.20
2023-04-01T01:24:41.526Z,3.93
2023-04-01T01:27:18.756Z,4.40
2023-04-01T01:30:41.394Z,4.43
2023-04-01T01:33:35.057Z,5.40
2023-04-01T01:36:15.942Z,2.60
2023-04-01T01:38:49.459Z,4.27
2023-04-01T01:41:25.785Z,4.10
2023-04-01T01:44:01.953Z,3.97
2023-04-01T01:46:35.025Z,6.37
2023-04-01T01:49:09.446Z,4.23
2023-04-01T01:51:44.035Z,4.10
2023-04-01T01:54:19.508Z,5.30
2023-04-01T01:57:02.774Z,3.97
2023-04-01T01:59:38.596Z,2.37
2023-04-01T02:02:13.405Z,3.43
2023-04-01T02:04:48.093Z,3.13
2023-04-01T02:07:30.138Z,3.37
2023-04-01T02:10:02.152Z,2.50
2023-04-01T02:12:37.291Z,4.70
2023-04-01T02:15:15.905Z,4.87
2023-04-01T02:17:52.186Z,4.97
2023-04-01T02:20:29.155Z,4.83
2023-04-01T02:23:06.299Z,2.37
2023-04-01T02:25:43.425Z,4.90
2023-04-01T02:28:24.510Z,2.73
2023-04-01T02:30:56.720Z,2.23
2023-04-01T02:33:29.241Z,4.40
2023-04-01T02:36:01.397Z,3.43
2023-04-01T02:38:37.771Z,2.13
2023-04-01T02:41:09.973Z,1.97
2023-04-01T02:43:41.822Z,2.80
2023-04-01T02:46:13.777Z,2.63
2023-04-01T02:48:45.611Z,2.87
2023-04-01T02:51:18.433Z,3.00
2023-04-01T02:53:51.537Z,5.63
2023-04-01T02:56:23.530Z,4.13
2023-04-01T02:58:55.893Z,1.87
2023-04-01T03:01:28.268Z,3.93
2023-04-01T03:03:59.941Z,1.50
2023-04-01T03:06:31.998Z,3.23
2023-04-01T03:09:05.350Z,3.33
2023-04-01T03:11:36.898Z,2.07
2023-04-01T03:14:08.814Z,4.17
2023-04-01T03:16:40.781Z,4.37
2023-04-01T03:19:12.435Z,2.67
2023-04-01T03:21:44.262Z,3.80
2023-04-01T03:24:17.489Z,2.97
2023-04-01T03:26:49.402Z,3.70
2023-04-01T03:29:21.261Z,4.27
2023-04-01T03:31:53.103Z,4.33
2023-04-01T03:34:25.129Z,3.60
2023-04-01T03:36:56.941Z,2.27
2023-04-01T03:39:30.266Z,2.10
2023-04-01T03:42:01.815Z,3.40
2023-04-01T03:44:35.940Z,4.30
2023-04-01T03:47:10.015Z,2.73
2023-04-01T03:49:41.962Z,4.37
2023-04-01T03:52:15.265Z,3.97
2023-04-01T03:54:48.280Z,2.97
2023-04-01T03:57:20.310Z,3.43
2023-04-01T03:59:52.071Z,3.83
2023-04-01T04:02:24.051Z,2.47
2023-04-01T04:04:55.813Z,4.60
2023-04-01T04:07:27.777Z,3.80
2023-04-01T04:10:00.969Z,2.80
2023-04-01T04:12:32.902Z,3.40
2023-04-01T04:15:04.853Z,6.03
2023-04-01T04:17:36.801Z,2.57
2023-04-01T04:20:11.162Z,3.33
2023-04-01T04:22:42.857Z,4.00
2023-04-01T04:25:16.242Z,5.07
2023-04-01T04:27:48.026Z,5.93
2023-04-01T04:30:19.824Z,8.17
2023-04-01T04:32:51.623Z,7.03
2023-04-01T04:35:23.442Z,8.87
2023-04-01T04:37:55.576Z,11.63
2023-04-01T04:40:29.047Z,12.63
2023-04-01T04:43:01.118Z,8.73
2023-04-01T04:45:33.461Z,10.23
2023-04-01T04:48:05.739Z,8.20
2023-04-01T04:50:37.872Z,5.07
2023-04-01T04:53:11.277Z,5.30
2023-04-01T04:55:47.751Z,5.80
2023-04-01T04:58:20.760Z,4.17
2023-04-01T05:00:52.840Z,6.10
2023-04-01T05:03:24.660Z,4.30
2023-04-01T05:05:58.033Z,6.63
2023-04-01T05:08:30.091Z,3.73
2023-04-01T05:11:04.077Z,3.97
2023-04-01T05:13:36.110Z,3.33
2023-04-01T05:16:12.083Z,4.50
2023-04-01T05:18:44.376Z,3.87
2023-04-01T05:21:18.134Z,5.00
2023-04-01T05:23:50.102Z,5.73
2023-04-01T05:26:23.702Z,4.67
2023-04-01T05:28:55.713Z,5.33
2023-04-01T05:31:27.674Z,6.07
2023-04-01T05:33:59.830Z,4.53
2023-04-01T05:36:31.952Z,6.73
2023-04-01T05:39:04.343Z,5.63
2023-04-01T05:41:39.906Z,4.47
2023-04-01T05:44:15.391Z,4.20
2023-04-01T05:46:47.389Z,3.07
2023-04-01T05:49:19.254Z,4.00
2023-04-01T05:51:52.320Z,4.53
2023-04-01T05:54:24.575Z,5.10
2023-04-01T05:56:58.060Z,3.70
2023-04-01T05:59:32.136Z,3.43
2023-04-01T06:02:04.418Z,4.77
2023-04-01T06:04:43.068Z,4.87
2023-04-01T06:07:20.214Z,4.40
2023-04-01T06:09:52.701Z,5.17
2023-04-01T06:12:43.681Z,5.47
2023-04-01T06:15:36.851Z,4.17
2023-04-01T06:18:47.759Z,4.77
2023-04-01T06:21:49.704Z,4.53
2023-04-01T06:24:53.901Z,3.40
2023-04-01T06:27:45.541Z,2.53
2023-04-01T06:30:44.379Z,4.63
2023-04-01T06:33:52.635Z,4.13
2023-04-01T06:36:42.547Z,4.53
2023-04-01T06:39:45.275Z,4.73
2023-04-01T06:42:35.637Z,5.40
2023-04-01T06:45:26.185Z,5.07
2023-04-01T06:48:16.411Z,4.17
2023-04-01T06:50:57.212Z,6.60
2023-04-01T06:53:44.411Z,4.63
2023-04-01T06:56:20.001Z,5.67
2023-04-01T06:58:57.949Z,6.23
2023-04-01T07:01:37.407Z,5.23
2023-04-01T07:04:18.448Z,4.37
2023-04-01T07:06:56.072Z,3.93
2023-04-01T07:09:38.928Z,5.50
2023-04-01T07:12:20.754Z,4.20
2023-04-01T07:14:57.897Z,3.93
2023-04-01T07:17:35.750Z,5.30
2023-04-01T07:20:17.926Z,3.17
2023-04-01T07:22:53.624Z,6.83
2023-04-01T07:25:30.837Z,4.50
2023-04-01T07:28:07.359Z,3.70
2023-04-01T07:30:54.804Z,4.33
2023-04-01T07:33:35.814Z,4.17
2023-04-01T07:36:16.072Z,6.03
2023-04-01T07:39:04.914Z,3.53
2023-04-01T07:41:47.551Z,5.43
2023-04-01T07:44:27.630Z,3.57
2023-04-01T07:47:14.953Z,6.20
2023-04-01T07:49:58.957Z,5.20
2023-04-01T07:52:38.844Z,4.73
2023-04-01T07:55:22.429Z,2.80
2023-04-01T07:58:02.409Z,5.70
2023-04-01T08:00:42.209Z,3.63
2023-04-01T08:03:38.729Z,4.47
2023-04-01T08:06:20.762Z,3.27
2023-04-01T08:09:03.433Z,2.73
2023-04-01T08:11:49.785Z,3.60
2023-04-01T08:14:33.393Z,3.53
2023-04-01T08:17:14.691Z,2.50
2023-04-01T08:20:05.929Z,4.40
2023-04-01T08:22:47.150Z,4.17
2023-04-01T08:25:26.790Z,2.77
2023-04-01T08:28:06.626Z,3.33
2023-04-01T08:30:47.980Z,2.57
2023-04-01T08:33:26.091Z,2.40
2023-04-01T08:36:03.845Z,3.07
2023-04-01T08:38:42.631Z,2.87
2023-04-01T08:41:53.405Z,3.10
2023-04-01T08:45:08.519Z,4.40
2023-04-01T08:48:09.757Z,2.47
2023-04-01T08:51:11.519Z,4.23
2023-04-01T08:54:13.123Z,2.63
2023-04-01T08:56:59.252Z,2.93
2023-04-01T08:59:52.741Z,2.83
2023-04-01T09:02:59.121Z,2.33
2023-04-01T09:06:14.585Z,4.00
2023-04-01T09:09:11.619Z,4.73
2023-04-01T09:12:20.867Z,1.80
2023-04-01T09:15:34.645Z,2.53
2023-04-01T09:18:49.257Z,2.97
2023-04-01T09:21:34.032Z,3.53
2023-04-01T09:24:35.121Z,1.40
2023-04-01T09:27:24.724Z,2.83
2023-04-01T09:30:35.377Z,3.17
2023-04-01T09:34:02.616Z,2.33
2023-04-01T09:36:57.774Z,1.90
2023-04-01T09:39:51.248Z,2.37
2023-04-01T09:42:51.343Z,3.07
2023-04-01T09:45:40.021Z,1.53
2023-04-01T09:48:36.772Z,3.17
2023-04-01T09:51:25.116Z,2.90
2023-04-01T09:54:13.212Z,1.83
2023-04-01T09:57:44.388Z,1.80
2023-04-01T10:01:05.395Z,2.10
2023-04-01T10:04:26.466Z,3.40
2023-04-01T10:07:36.237Z,2.10
2023-04-01T10:10:41.864Z,1.50
2023-04-01T10:14:13.608Z,1.50
2023-04-01T10:17:34.716Z,2.67
2023-04-01T10:20:23.130Z,2.03
2023-04-01T10:23:42.761Z,2.50
2023-04-01T10:26:58.479Z,2.03
2023-04-01T10:30:29.571Z,1.47
2023-04-01T10:33:56.945Z,4.40
2023-04-01T10:36:52.828Z,2.57
2023-04-01T10:40:26.758Z,2.37
2023-04-01T10:43:43.053Z,2.63
2023-04-01T10:47:04.751Z,5.73
2023-04-01T10:49:53.324Z,2.47
2023-04-01T10:53:17.941Z,1.77
2023-04-01T10:56:26.496Z,1.97
2023-04-01T10:59:38.038Z,1.40
2023-04-01T11:02:56.802Z,1.13
2023-04-01T11:06:33.837Z,1.90
2023-04-01T11:09:50.761Z,2.10
2023-04-01T11:13:02.952Z,1.83
2023-04-01T11:15:59.550Z,2.43
2023-04-01T11:19:34.773Z,1.90
2023-04-01T11:22:31.441Z,2.27
2023-04-01T11:25:52.233Z,3.77
2023-04-01T11:28:52.685Z,1.67
2023-04-01T11:31:45.817Z,1.63
2023-04-01T11:34:48.015Z,1.70
2023-04-01T11:37:35.862Z,1.17
2023-04-01T11:40:24.522Z,3.17
2023-04-01T11:43:17.255Z,4.43
2023-04-01T11:46:04.347Z,1.87
2023-04-01T11:49:06.548Z,1.93
2023-04-01T11:52:06.870Z,1.47
2023-04-01T11:55:17.150Z,1.57
2023-04-01T11:58:04.767Z,1.10
2023-04-01T12:01:17.253Z,2.10
2023-04-01T12:04:22.220Z,1.10
2023-04-01T12:07:05.644Z,2.27
2023-04-01T12:09:50.431Z,1.60
2023-04-01T12:12:40.173Z,1.20
2023-04-01T12:15:31.027Z,1.20
2023-04-01T12:18:14.860Z,1.43
2023-04-01T12:20:58.405Z,2.23
2023-04-01T12:24:04.505Z,1.57
2023-04-01T12:27:07.064Z,1.70
2023-04-01T12:30:24.042Z,1.77
2023-04-01T12:33:38.632Z,2.00
2023-04-01T12:36:27.157Z,1.13
2023-04-01T12:39:21.865Z,0.80
2023-04-01T12:42:07.695Z,1.30
2023-04-01T12:44:52.930Z,1.50
2023-04-01T12:47:47.692Z,1.80
2023-04-01T12:50:40.494Z,0.80
2023-04-01T12:53:40.628Z,2.37
2023-04-01T12:56:26.444Z,1.37
2023-04-01T12:59:37.327Z,2.17
2023-04-01T13:02:34.045Z,2.10
2023-04-01T13:05:52.127Z,3.40
2023-04-01T13:08:47.195Z,1.53
2023-04-01T13:11:33.265Z,1.07
2023-04-01T13:14:42.580Z,1.20
2023-04-01T13:17:28.888Z,1.80
2023-04-01T13:20:15.909Z,1.60
2023-04-01T13:23:02.882Z,1.63
2023-04-01T13:25:45.815Z,3.07
2023-04-01T13:28:26.743Z,2.00
2023-04-01T13:31:11.878Z,1.93
2023-04-01T13:33:58.245Z,1.90
2023-04-01T13:36:46.692Z,1.60
2023-04-01T13:39:32.694Z,1.57
2023-04-01T13:42:18.892Z,1.90
2023-04-01T13:44:58.347Z,1.40
2023-04-01T13:48:16.492Z,1.40
2023-04-01T13:51:27.872Z,1.60
2023-04-01T13:54:33.509Z,2.63
2023-04-01T13:57:26.744Z,1.47
2023-04-01T14:00:21.623Z,1.40
2023-04-01T14:03:16.548Z,1.80
2023-04-01T14:06:12.120Z,1.27
2023-04-01T14:09:10.965Z,1.30
2023-04-01T14:11:54.951Z,1.60
2023-04-01T14:14:38.774Z,1.57
2023-04-01T14:17:42.056Z,1.60
2023-04-01T14:20:28.630Z,1.60
2023-04-01T14:23:32.509Z,2.40
2023-04-01T14:26:28.745Z,2.50
2023-04-01T14:29:13.210Z,1.80
2023-04-01T14:32:08.862Z,1.70
2023-04-01T14:35:01.660Z,2.40
2023-04-01T14:38:23.511Z,1.70
2023-04-01T14:41:03.832Z,3.37
2023-04-01T14:44:04.811Z,1.73
2023-04-01T14:47:12.001Z,1.50
2023-04-01T14:49:48.501Z,2.20
2023-04-01T14:52:30.331Z,1.67
2023-04-01T14:55:13.455Z,1.40
2023-04-01T14:57:59.744Z,1.53
2023-04-01T15:00:49.371Z,1.87
2023-04-01T15:03:28.300Z,1.70
2023-04-01T15:06:26.527Z,1.50
2023-04-01T15:09:10.027Z,1.77
2023-04-01T15:11:58.498Z,1.70
2023-04-01T15:14:53.005Z,1.63
2023-04-01T15:17:53.994Z,1.43
2023-04-01T15:20:50.010Z,1.87
2023-04-01T15:23:47.454Z,2.37
2023-04-01T15:26:35.251Z,1.87
2023-04-01T15:29:36.329Z,2.00
2023-04-01T15:32:18.757Z,2.00
2023-04-01T15:35:05.245Z,1.60
2023-04-01T15:37:54.551Z,1.93
2023-04-01T15:40:34.965Z,1.93
2023-04-01T15:43:26.348Z,1.30
2023-04-01T15:46:14.921Z,3.53
2023-04-01T15:49:02.063Z,1.93
2023-04-01T15:52:05.108Z,1.70
2023-04-01T15:55:14.641Z,1.80
2023-04-01T15:58:00.060Z,1.80
2023-04-01T16:00:45.121Z,1.60
2023-04-01T16:03:35.383Z,1.67
2023-04-01T16:07:04.848Z,1.40
2023-04-01T16:10:01.470Z,1.80
2023-04-01T16:12:55.300Z,1.70
2023-04-01T16:15:39.280Z,1.50
2023-04-01T16:18:34.928Z,1.53
2023-04-01T16:21:14.103Z,1.60
2023-04-01T16:23:54.093Z,1.47
2023-04-01T16:26:38.131Z,3.13
2023-04-01T16:29:22.996Z,2.00
2023-04-01T16:32:16.518Z,2.10
2023-04-01T16:35:05.268Z,1.63
2023-04-01T16:37:45.350Z,1.33
2023-04-01T16:40:27.814Z,1.93
2023-04-01T16:43:12.275Z,1.97
2023-04-01T16:45:55.336Z,1.50
2023-04-01T16:48:37.967Z,2.53
2023-04-01T16:51:17.885Z,2.23
2023-04-01T16:53:54.887Z,1.73
2023-04-01T16:56:30.733Z,1.90
2023-04-01T16:59:17.073Z,1.80
2023-04-01T17:01:55.684Z,3.13
2023-04-01T17:04:38.494Z,2.13
2023-04-01T17:07:32.585Z,3.37
2023-04-01T17:10:24.637Z,2.53
2023-04-01T17:13:15.434Z,2.23
2023-04-01T17:15:57.542Z,2.17
2023-04-01T17:18:44.631Z,2.00
2023-04-01T17:21:26.461Z,2.23
2023-04-01T17:24:13.133Z,2.40
2023-04-01T17:26:56.261Z,2.10
2023-04-01T17:29:41.274Z,2.10
2023-04-01T17:32:30.128Z,1.90
2023-04-01T17:35:13.832Z,2.10
2023-04-01T17:38:05.954Z,2.43
2023-04-01T17:40:53.655Z,2.07
2023-04-01T17:43:42.723Z,2.53
2023-04-01T17:46:37.484Z,1.90
2023-04-01T17:49:29.616Z,1.90
2023-04-01T17:52:13.412Z,1.80
2023-04-01T17:54:54.835Z,1.70
2023-04-01T17:57:48.611Z,1.87
2023-04-01T18:00:27.270Z,1.80
2023-04-01T18:03:16.707Z,2.70
2023-04-01T18:06:09.580Z,1.87
2023-04-01T18:08:59.129Z,2.83
2023-04-01T18:11:54.878Z,2.07
2023-04-01T18:15:03.221Z,3.00
2023-04-01T18:17:54.507Z,2.00
2023-04-01T18:20:43.460Z,2.00
2023-04-01T18:23:28.556Z,2.83
2023-04-01T18:26:10.615Z,1.90
2023-04-01T18:28:49.978Z,2.10
2023-04-01T18:31:34.166Z,2.03
2023-04-01T18:34:16.605Z,2.00
2023-04-01T18:36:55.412Z,2.20
2023-04-01T18:39:40.038Z,2.20
2023-04-01T18:42:26.221Z,2.10
2023-04-01T18:45:11.818Z,2.30
2023-04-01T18:47:57.896Z,1.80
2023-04-01T18:50:38.589Z,4.50
2023-04-01T18:53:21.810Z,2.23
2023-04-01T18:55:58.782Z,3.17
2023-04-01T18:58:36.526Z,2.87
2023-04-01T19:01:24.685Z,2.07
2023-04-01T19:04:14.059Z,2.00
2023-04-01T19:06:52.743Z,2.30
2023-04-01T19:09:28.633Z,2.77
2023-04-01T19:12:29.726Z,2.47
2023-04-01T19:15:28.178Z,2.57
2023-04-01T19:18:44.227Z,2.60
2023-04-01T19:21:22.570Z,4.40
2023-04-01T19:24:14.712Z,2.60
2023-04-01T19:26:55.024Z,3.33
2023-04-01T19:29:44.554Z,3.07
2023-04-01T19:32:32.244Z,2.63
2023-04-01T19:35:17.800Z,4.80
2023-04-01T19:38:04.193Z,4.30
2023-04-01T19:40:51.573Z,2.90
2023-04-01T19:43:44.126Z,3.63
2023-04-01T19:46:27.264Z,2.70
2023-04-01T19:49:23.870Z,5.33
2023-04-01T19:52:00.062Z,3.57
2023-04-01T19:54:45.413Z,5.00
2023-04-01T19:57:29.463Z,3.10
2023-04-01T20:00:18.069Z,3.73
2023-04-01T20:03:03.593Z,3.23
2023-04-01T20:05:53.855Z,3.30
2023-04-01T20:08:38.750Z,3.10
2023-04-01T20:11:31.906Z,4.00
2023-04-01T20:14:15.492Z,2.80
2023-04-01T20:16:59.391Z,3.40
2023-04-01T20:19:36.837Z,4.83
2023-04-01T20:22:26.020Z,3.53
2023-04-01T20:25:07.118Z,3.30
2023-04-01T20:27:47.562Z,5.10
2023-04-01T20:30:47.119Z,3.93
2023-04-01T20:33:48.337Z,4.20
2023-04-01T20:36:28.838Z,5.30
2023-04-01T20:39:37.320Z,4.40
2023-04-01T20:42:29.535Z,5.77
2023-04-01T20:45:20.698Z,4.40
2023-04-01T20:48:13.798Z,4.13
2023-04-01T20:50:53.106Z,4.07
2023-04-01T20:53:33.201Z,5.03
2023-04-01T20:56:26.552Z,4.70
2023-04-01T20:59:17.059Z,6.47
2023-04-01T21:02:03.286Z,6.90
2023-04-01T21:04:49.829Z,5.03
2023-04-01T21:07:33.908Z,4.50
2023-04-01T21:10:31.529Z,5.50
2023-04-01T21:13:23.345Z,6.50
2023-04-01T21:16:10.422Z,4.10
2023-04-01T21:18:58.795Z,5.20
2023-04-01T21:21:52.243Z,4.57
2023-04-01T21:24:56.938Z,6.57
2023-04-01T21:27:49.617Z,4.73
2023-04-01T21:30:46.220Z,5.50
2023-04-01T21:33:35.085Z,6.07
2023-04-01T21:36:23.679Z,5.63
2023-04-01T21:39:15.449Z,5.47
2023-04-01T21:42:22.853Z,6.50
2023-04-01T21:45:18.004Z,5.70
2023-04-01T21:48:30.628Z,7.80
2023-04-01T21:51:55.796Z,7.77
2023-04-01T21:55:24.020Z,5.37
2023-04-01T21:58:42.506Z,6.20
2023-04-01T22:02:00.034Z,6.77
2023-04-01T22:04:49.606Z,7.17
2023-04-01T22:07:27.936Z,5.90
2023-04-01T22:10:13.521Z,7.50
2023-04-01T22:12:55.832Z,6.13
2023-04-01T22:15:47.311Z,7.07
2023-04-01T22:18:29.836Z,6.60
2023-04-01T22:21:10.331Z,5.80
2023-04-01T22:23:53.526Z,7.63
2023-04-01T22:26:37.318Z,7.13
2023-04-01T22:29:19.400Z,8.17
2023-04-01T22:32:01.218Z,5.70
2023-04-01T22:34:46.378Z,7.60
2023-04-01T22:37:33.594Z,9.77
2023-04-01T22:40:24.349Z,6.40
2023-04-01T22:43:04.829Z,8.07
2023-04-01T22:46:02.128Z,8.17
2023-04-01T22:48:43.442Z,7.93
2023-04-01T22:51:25.045Z,8.67
2023-04-01T22:54:18.215Z,8.87
2023-04-01T22:56:57.988Z,7.17
2023-04-01T22:59:37.115Z,8.27
2023-04-01T23:02:16.822Z,6.43
2023-04-01T23:04:55.970Z,8.67
2023-04-01T23:07:50.073Z,9.10
2023-04-01T23:10:28.226Z,6.67
2023-04-01T23:13:03.955Z,9.13
2023-04-01T23:15:39.015Z,7.00
2023-04-01T23:18:23.575Z,9.30
2023-04-01T23:21:08.641Z,7.90
2023-04-01T23:23:54.224Z,9.03
2023-04-01T23:26:34.607Z,7.67
2023-04-01T23:29:13.449Z,10.60
2023-04-01T23:31:47.608Z,7.63
2023-04-01T23:34:30.090Z,7.37
2023-04-01T23:37:03.686Z,9.27
2023-04-01T23:39:37.763Z,8.53
2023-04-01T23:42:16.734Z,7.37
2023-04-01T23:44:51.316Z,8.93
2023-04-01T23:47:26.346Z,6.13
2023-04-01T23:50:04.575Z,8.27
2023-04-01T23:52:42.180Z,8.77
2023-04-01T23:55:24.582Z,9.93
2023-04-01T23:58:11.776Z,9.93
